sensor_id;sensor_type;location;lat;lon;timestamp;P1;durP1;ratioP1;P2;durP2;ratioP2
27313;SDS011;14800;48.174;9.798;2024-01-07T00:00:59;9.20;;;7.20;;
27313;SDS011;14800;48.174;9.798;2024-01-07T00:03:25;8.05;;;6.80;;
27313;SDS011;14800;48.174;9.798;2024-01-07T00:05:51;9.25;;;7.05;;
27313;SDS011;14800;48.174;9.798;2024-01-07T00:08:16;10.43;;;7.60;;
27313;SDS011;14800;48.174;9.798;2024-01-07T00:10:42;7.78;;;6.10;;
27313;SDS011;14800;48.174;9.798;2024-01-07T00:13:07;8.60;;;6.63;;
27313;SDS011;14800;48.174;9.798;2024-01-07T00:15:33;10.07;;;6.72;;
27313;SDS011;14800;48.174;9.798;2024-01-07T00:17:59;10.00;;;7.00;;
27313;SDS011;14800;48.174;9.798;2024-01-07T00:20:24;9.45;;;6.72;;
27313;SDS011;14800;48.174;9.798;2024-01-07T00:22:50;8.60;;;6.78;;
27313;SDS011;14800;48.174;9.798;2024-01-07T00:25:15;10.57;;;6.85;;
27313;SDS011;14800;48.174;9.798;2024-01-07T00:27:43;9.00;;;6.93;;
27313;SDS011;14800;48.174;9.798;2024-01-07T00:30:09;9.20;;;6.95;;
27313;SDS011;14800;48.174;9.798;2024-01-07T00:32:35;9.40;;;6.72;;
27313;SDS011;14800;48.174;9.798;2024-01-07T00:35:00;9.80;;;7.03;;
27313;SDS011;14800;48.174;9.798;2024-01-07T00:37:26;9.20;;;6.88;;
27313;SDS011;14800;48.174;9.798;2024-01-07T00:39:51;8.00;;;6.47;;
27313;SDS011;14800;48.174;9.798;2024-01-07T00:42:17;9.68;;;6.82;;
27313;SDS011;14800;48.174;9.798;2024-01-07T00:44:42;7.65;;;6.10;;
27313;SDS011;14800;48.174;9.798;2024-01-07T00:47:08;8.30;;;6.35;;
27313;SDS011;14800;48.174;9.798;2024-01-07T00:49:33;8.10;;;6.30;;
27313;SDS011;14800;48.174;9.798;2024-01-07T00:51:59;8.95;;;6.60;;
27313;SDS011;14800;48.174;9.798;2024-01-07T00:54:25;8.10;;;6.25;;
27313;SDS011;14800;48.174;9.798;2024-01-07T00:56:50;8.75;;;6.18;;
27313;SDS011;14800;48.174;9.798;2024-01-07T00:59:16;8.20;;;5.93;;
27313;SDS011;14800;48.174;9.798;2024-01-07T01:01:41;8.52;;;5.88;;
27313;SDS011;14800;48.174;9.798;2024-01-07T01:04:07;7.53;;;5.80;;
27313;SDS011;14800;48.174;9.798;2024-01-07T01:06:32;8.00;;;6.00;;
27313;SDS011;14800;48.174;9.798;2024-01-07T01:08:58;6.95;;;5.47;;
27313;SDS011;14800;48.174;9.798;2024-01-07T01:11:23;7.93;;;5.75;;
27313;SDS011;14800;48.174;9.798;2024-01-07T01:13:49;6.25;;;5.47;;
27313;SDS011;14800;48.174;9.798;2024-01-07T01:16:14;6.63;;;5.35;;
27313;SDS011;14800;48.174;9.798;2024-01-07T01:18:40;6.32;;;5.53;;
27313;SDS011;14800;48.174;9.798;2024-01-07T01:21:05;6.43;;;5.35;;
27313;SDS011;14800;48.174;9.798;2024-01-07T01:23:32;7.82;;;6.13;;
27313;SDS011;14800;48.174;9.798;2024-01-07T01:25:58;7.45;;;6.07;;
27313;SDS011;14800;48.174;9.798;2024-01-07T01:28:23;9.55;;;7.25;;
27313;SDS011;14800;48.174;9.798;2024-01-07T01:30:49;8.60;;;6.80;;
27313;SDS011;14800;48.174;9.798;2024-01-07T01:33:14;8.85;;;6.72;;
27313;SDS011;14800;48.174;9.798;2024-01-07T01:35:40;8.68;;;6.85;;
27313;SDS011;14800;48.174;9.798;2024-01-07T01:38:05;7.82;;;6.55;;
27313;SDS011;14800;48.174;9.798;2024-01-07T01:40:31;8.50;;;6.57;;
27313;SDS011;14800;48.174;9.798;2024-01-07T01:42:57;9.32;;;7.25;;
27313;SDS011;14800;48.174;9.798;2024-01-07T01:45:22;8.02;;;6.57;;
27313;SDS011;14800;48.174;9.798;2024-01-07T01:47:48;9.25;;;7.32;;
27313;SDS011;14800;48.174;9.798;2024-01-07T01:50:13;9.30;;;7.20;;
27313;SDS011;14800;48.174;9.798;2024-01-07T01:52:40;11.88;;;8.48;;
27313;SDS011;14800;48.174;9.798;2024-01-07T01:55:06;9.73;;;7.57;;
27313;SDS011;14800;48.174;9.798;2024-01-07T01:57:32;8.50;;;7.40;;
27313;SDS011;14800;48.174;9.798;2024-01-07T02:00:02;9.70;;;7.43;;
27313;SDS011;14800;48.174;9.798;2024-01-07T02:02:30;9.90;;;7.75;;
27313;SDS011;14800;48.174;9.798;2024-01-07T02:04:59;10.48;;;7.55;;
27313;SDS011;14800;48.174;9.798;2024-01-07T02:07:25;9.77;;;7.40;;
27313;SDS011;14800;48.174;9.798;2024-01-07T02:09:53;9.70;;;7.20;;
27313;SDS011;14800;48.174;9.798;2024-01-07T02:12:18;10.52;;;7.47;;
27313;SDS011;14800;48.174;9.798;2024-01-07T02:14:44;9.20;;;7.45;;
27313;SDS011;14800;48.174;9.798;2024-01-07T02:17:09;10.80;;;8.18;;
27313;SDS011;14800;48.174;9.798;2024-01-07T02:19:35;10.93;;;8.18;;
27313;SDS011;14800;48.174;9.798;2024-01-07T02:22:01;9.15;;;7.32;;
27313;SDS011;14800;48.174;9.798;2024-01-07T02:24:26;9.80;;;7.70;;
27313;SDS011;14800;48.174;9.798;2024-01-07T02:26:52;9.80;;;7.65;;
27313;SDS011;14800;48.174;9.798;2024-01-07T02:29:17;9.25;;;7.40;;
27313;SDS011;14800;48.174;9.798;2024-01-07T02:31:43;9.88;;;7.80;;
27313;SDS011;14800;48.174;9.798;2024-01-07T02:34:09;10.95;;;8.05;;
27313;SDS011;14800;48.174;9.798;2024-01-07T02:36:35;10.05;;;7.70;;
27313;SDS011;14800;48.174;9.798;2024-01-07T02:39:01;9.68;;;7.70;;
27313;SDS011;14800;48.174;9.798;2024-01-07T02:41:26;10.18;;;7.95;;
27313;SDS011;14800;48.174;9.798;2024-01-07T02:43:52;12.02;;;7.88;;
27313;SDS011;14800;48.174;9.798;2024-01-07T02:46:19;10.43;;;8.00;;
27313;SDS011;14800;48.174;9.798;2024-01-07T02:48:45;10.75;;;8.15;;
27313;SDS011;14800;48.174;9.798;2024-01-07T02:51:10;11.95;;;8.27;;
27313;SDS011;14800;48.174;9.798;2024-01-07T02:53:36;10.70;;;8.20;;
27313;SDS011;14800;48.174;9.798;2024-01-07T02:56:01;10.40;;;7.63;;
27313;SDS011;14800;48.174;9.798;2024-01-07T02:58:27;10.77;;;7.53;;
27313;SDS011;14800;48.174;9.798;2024-01-07T03:00:53;10.82;;;7.63;;
27313;SDS011;14800;48.174;9.798;2024-01-07T03:03:18;9.63;;;7.57;;
27313;SDS011;14800;48.174;9.798;2024-01-07T03:05:44;10.35;;;7.75;;
27313;SDS011;14800;48.174;9.798;2024-01-07T03:08:09;9.68;;;7.30;;
27313;SDS011;14800;48.174;9.798;2024-01-07T03:10:35;8.27;;;6.68;;
27313;SDS011;14800;48.174;9.798;2024-01-07T03:13:01;10.70;;;7.32;;
27313;SDS011;14800;48.174;9.798;2024-01-07T03:15:28;8.02;;;6.32;;
27313;SDS011;14800;48.174;9.798;2024-01-07T03:17:53;9.15;;;6.70;;
27313;SDS011;14800;48.174;9.798;2024-01-07T03:20:19;7.95;;;6.40;;
27313;SDS011;14800;48.174;9.798;2024-01-07T03:22:44;8.20;;;6.50;;
27313;SDS011;14800;48.174;9.798;2024-01-07T03:25:10;8.63;;;6.38;;
27313;SDS011;14800;48.174;9.798;2024-01-07T03:27:35;8.25;;;6.60;;
27313;SDS011;14800;48.174;9.798;2024-01-07T03:30:01;8.90;;;6.63;;
27313;SDS011;14800;48.174;9.798;2024-01-07T03:32:27;9.32;;;6.65;;
27313;SDS011;14800;48.174;9.798;2024-01-07T03:34:53;8.85;;;6.80;;
27313;SDS011;14800;48.174;9.798;2024-01-07T03:37:19;9.15;;;6.65;;
27313;SDS011;14800;48.174;9.798;2024-01-07T03:39:45;8.43;;;6.23;;
27313;SDS011;14800;48.174;9.798;2024-01-07T03:42:12;8.52;;;6.43;;
27313;SDS011;14800;48.174;9.798;2024-01-07T03:44:38;8.05;;;6.32;;
27313;SDS011;14800;48.174;9.798;2024-01-07T03:47:04;8.70;;;6.82;;
27313;SDS011;14800;48.174;9.798;2024-01-07T03:49:30;9.63;;;6.75;;
27313;SDS011;14800;48.174;9.798;2024-01-07T03:51:56;9.18;;;6.63;;
27313;SDS011;14800;48.174;9.798;2024-01-07T03:54:22;8.63;;;6.75;;
27313;SDS011;14800;48.174;9.798;2024-01-07T03:56:47;8.90;;;6.65;;
27313;SDS011;14800;48.174;9.798;2024-01-07T03:59:13;8.95;;;6.53;;
27313;SDS011;14800;48.174;9.798;2024-01-07T04:01:38;9.10;;;6.60;;
27313;SDS011;14800;48.174;9.798;2024-01-07T04:04:04;10.65;;;7.47;;
27313;SDS011;14800;48.174;9.798;2024-01-07T04:06:29;11.20;;;6.78;;
27313;SDS011;14800;48.174;9.798;2024-01-07T04:08:55;9.27;;;6.90;;
27313;SDS011;14800;48.174;9.798;2024-01-07T04:11:21;10.88;;;7.28;;
27313;SDS011;14800;48.174;9.798;2024-01-07T04:13:46;10.55;;;7.13;;
27313;SDS011;14800;48.174;9.798;2024-01-07T04:16:16;11.95;;;7.53;;
27313;SDS011;14800;48.174;9.798;2024-01-07T04:18:42;10.32;;;7.82;;
27313;SDS011;14800;48.174;9.798;2024-01-07T04:21:11;10.13;;;7.05;;
27313;SDS011;14800;48.174;9.798;2024-01-07T04:23:38;10.95;;;7.68;;
27313;SDS011;14800;48.174;9.798;2024-01-07T04:26:04;10.52;;;7.78;;
27313;SDS011;14800;48.174;9.798;2024-01-07T04:28:30;11.63;;;7.15;;
27313;SDS011;14800;48.174;9.798;2024-01-07T04:30:55;9.32;;;7.55;;
27313;SDS011;14800;48.174;9.798;2024-01-07T04:33:21;9.95;;;7.72;;
27313;SDS011;14800;48.174;9.798;2024-01-07T04:35:47;11.57;;;7.75;;
27313;SDS011;14800;48.174;9.798;2024-01-07T04:38:13;11.45;;;7.47;;
27313;SDS011;14800;48.174;9.798;2024-01-07T04:40:39;10.73;;;7.30;;
27313;SDS011;14800;48.174;9.798;2024-01-07T04:43:05;9.77;;;7.30;;
27313;SDS011;14800;48.174;9.798;2024-01-07T04:45:30;11.55;;;8.15;;
27313;SDS011;14800;48.174;9.798;2024-01-07T04:47:56;9.70;;;7.00;;
27313;SDS011;14800;48.174;9.798;2024-01-07T04:50:21;9.98;;;7.50;;
27313;SDS011;14800;48.174;9.798;2024-01-07T04:52:48;11.18;;;7.15;;
27313;SDS011;14800;48.174;9.798;2024-01-07T04:55:13;10.50;;;7.80;;
27313;SDS011;14800;48.174;9.798;2024-01-07T04:57:39;10.27;;;7.45;;
27313;SDS011;14800;48.174;9.798;2024-01-07T05:00:04;9.95;;;7.50;;
27313;SDS011;14800;48.174;9.798;2024-01-07T05:02:31;9.60;;;7.13;;
27313;SDS011;14800;48.174;9.798;2024-01-07T05:04:56;12.23;;;8.07;;
27313;SDS011;14800;48.174;9.798;2024-01-07T05:07:22;9.80;;;7.50;;
27313;SDS011;14800;48.174;9.798;2024-01-07T05:09:48;9.25;;;7.40;;
27313;SDS011;14800;48.174;9.798;2024-01-07T05:12:13;11.88;;;7.95;;
27313;SDS011;14800;48.174;9.798;2024-01-07T05:14:40;10.98;;;7.63;;
27313;SDS011;14800;48.174;9.798;2024-01-07T05:17:07;10.93;;;7.72;;
27313;SDS011;14800;48.174;9.798;2024-01-07T05:19:33;10.45;;;7.55;;
27313;SDS011;14800;48.174;9.798;2024-01-07T05:21:59;9.68;;;7.30;;
27313;SDS011;14800;48.174;9.798;2024-01-07T05:24:25;11.48;;;7.55;;
27313;SDS011;14800;48.174;9.798;2024-01-07T05:26:50;12.60;;;7.70;;
27313;SDS011;14800;48.174;9.798;2024-01-07T05:29:16;11.13;;;8.50;;
27313;SDS011;14800;48.174;9.798;2024-01-07T05:31:42;12.20;;;7.63;;
27313;SDS011;14800;48.174;9.798;2024-01-07T05:34:07;10.65;;;7.80;;
27313;SDS011;14800;48.174;9.798;2024-01-07T05:36:33;13.18;;;8.00;;
27313;SDS011;14800;48.174;9.798;2024-01-07T05:38:59;11.50;;;8.35;;
27313;SDS011;14800;48.174;9.798;2024-01-07T05:41:24;10.57;;;7.68;;
27313;SDS011;14800;48.174;9.798;2024-01-07T05:43:50;9.40;;;7.43;;
27313;SDS011;14800;48.174;9.798;2024-01-07T05:46:16;11.60;;;8.40;;
27313;SDS011;14800;48.174;9.798;2024-01-07T05:48:42;12.07;;;8.02;;
27313;SDS011;14800;48.174;9.798;2024-01-07T05:51:13;11.05;;;8.25;;
27313;SDS011;14800;48.174;9.798;2024-01-07T05:53:40;11.40;;;8.07;;
27313;SDS011;14800;48.174;9.798;2024-01-07T05:56:06;12.30;;;8.23;;
27313;SDS011;14800;48.174;9.798;2024-01-07T05:58:31;10.73;;;7.93;;
27313;SDS011;14800;48.174;9.798;2024-01-07T06:00:57;11.85;;;8.60;;
27313;SDS011;14800;48.174;9.798;2024-01-07T06:03:23;14.32;;;8.93;;
27313;SDS011;14800;48.174;9.798;2024-01-07T06:05:49;12.27;;;8.65;;
27313;SDS011;14800;48.174;9.798;2024-01-07T06:08:14;11.75;;;8.82;;
27313;SDS011;14800;48.174;9.798;2024-01-07T06:10:40;13.48;;;9.05;;
27313;SDS011;14800;48.174;9.798;2024-01-07T06:13:06;12.82;;;9.32;;
27313;SDS011;14800;48.174;9.798;2024-01-07T06:15:31;12.55;;;8.90;;
27313;SDS011;14800;48.174;9.798;2024-01-07T06:17:57;13.25;;;9.23;;
27313;SDS011;14800;48.174;9.798;2024-01-07T06:20:23;12.57;;;8.73;;
27313;SDS011;14800;48.174;9.798;2024-01-07T06:22:49;13.10;;;9.02;;
27313;SDS011;14800;48.174;9.798;2024-01-07T06:25:15;10.50;;;8.55;;
27313;SDS011;14800;48.174;9.798;2024-01-07T06:27:41;14.05;;;9.38;;
27313;SDS011;14800;48.174;9.798;2024-01-07T06:30:07;13.05;;;9.80;;
27313;SDS011;14800;48.174;9.798;2024-01-07T06:32:33;12.13;;;9.00;;
27313;SDS011;14800;48.174;9.798;2024-01-07T06:34:59;12.13;;;9.07;;
27313;SDS011;14800;48.174;9.798;2024-01-07T06:37:24;12.45;;;8.93;;
27313;SDS011;14800;48.174;9.798;2024-01-07T06:39:50;13.10;;;9.30;;
27313;SDS011;14800;48.174;9.798;2024-01-07T06:42:16;10.82;;;8.70;;
27313;SDS011;14800;48.174;9.798;2024-01-07T06:44:42;13.60;;;9.18;;
27313;SDS011;14800;48.174;9.798;2024-01-07T06:47:07;13.88;;;9.48;;
27313;SDS011;14800;48.174;9.798;2024-01-07T06:49:33;11.88;;;9.35;;
27313;SDS011;14800;48.174;9.798;2024-01-07T06:51:59;13.45;;;9.73;;
27313;SDS011;14800;48.174;9.798;2024-01-07T06:54:24;13.95;;;10.02;;
27313;SDS011;14800;48.174;9.798;2024-01-07T06:56:50;14.40;;;10.02;;
27313;SDS011;14800;48.174;9.798;2024-01-07T06:59:16;11.80;;;9.27;;
27313;SDS011;14800;48.174;9.798;2024-01-07T07:01:42;14.07;;;9.63;;
27313;SDS011;14800;48.174;9.798;2024-01-07T07:04:08;12.95;;;9.25;;
27313;SDS011;14800;48.174;9.798;2024-01-07T07:06:34;12.98;;;9.27;;
27313;SDS011;14800;48.174;9.798;2024-01-07T07:09:00;12.52;;;9.45;;
27313;SDS011;14800;48.174;9.798;2024-01-07T07:11:25;13.88;;;10.02;;
27313;SDS011;14800;48.174;9.798;2024-01-07T07:13:51;13.32;;;10.05;;
27313;SDS011;14800;48.174;9.798;2024-01-07T07:16:16;13.73;;;10.23;;
27313;SDS011;14800;48.174;9.798;2024-01-07T07:18:42;13.50;;;9.63;;
27313;SDS011;14800;48.174;9.798;2024-01-07T07:21:08;14.88;;;9.80;;
27313;SDS011;14800;48.174;9.798;2024-01-07T07:23:33;13.23;;;9.98;;
27313;SDS011;14800;48.174;9.798;2024-01-07T07:25:59;15.43;;;10.73;;
27313;SDS011;14800;48.174;9.798;2024-01-07T07:28:24;14.60;;;10.50;;
27313;SDS011;14800;48.174;9.798;2024-01-07T07:30:50;14.60;;;10.60;;
27313;SDS011;14800;48.174;9.798;2024-01-07T07:33:17;16.08;;;10.07;;
27313;SDS011;14800;48.174;9.798;2024-01-07T07:35:42;14.20;;;10.18;;
27313;SDS011;14800;48.174;9.798;2024-01-07T07:38:08;13.98;;;9.95;;
27313;SDS011;14800;48.174;9.798;2024-01-07T07:40:33;15.18;;;10.63;;
27313;SDS011;14800;48.174;9.798;2024-01-07T07:42:59;13.23;;;10.57;;
27313;SDS011;14800;48.174;9.798;2024-01-07T07:45:25;13.38;;;10.10;;
27313;SDS011;14800;48.174;9.798;2024-01-07T07:47:50;13.90;;;10.57;;
27313;SDS011;14800;48.174;9.798;2024-01-07T07:50:16;16.27;;;11.38;;
27313;SDS011;14800;48.174;9.798;2024-01-07T07:52:42;14.85;;;10.70;;
27313;SDS011;14800;48.174;9.798;2024-01-07T07:55:10;14.77;;;10.75;;
27313;SDS011;14800;48.174;9.798;2024-01-07T07:57:36;16.13;;;10.55;;
27313;SDS011;14800;48.174;9.798;2024-01-07T08:00:03;14.68;;;10.60;;
27313;SDS011;14800;48.174;9.798;2024-01-07T08:02:32;14.15;;;10.85;;
27313;SDS011;14800;48.174;9.798;2024-01-07T08:04:58;16.35;;;11.02;;
27313;SDS011;14800;48.174;9.798;2024-01-07T08:07:23;15.20;;;11.55;;
27313;SDS011;14800;48.174;9.798;2024-01-07T08:09:50;14.50;;;11.07;;
27313;SDS011;14800;48.174;9.798;2024-01-07T08:12:15;16.83;;;12.05;;
27313;SDS011;14800;48.174;9.798;2024-01-07T08:14:41;14.13;;;10.65;;
27313;SDS011;14800;48.174;9.798;2024-01-07T08:17:07;16.23;;;11.40;;
27313;SDS011;14800;48.174;9.798;2024-01-07T08:19:33;15.05;;;11.10;;
27313;SDS011;14800;48.174;9.798;2024-01-07T08:21:58;14.38;;;11.02;;
27313;SDS011;14800;48.174;9.798;2024-01-07T08:24:24;16.35;;;12.00;;
27313;SDS011;14800;48.174;9.798;2024-01-07T08:26:50;16.30;;;11.68;;
27313;SDS011;14800;48.174;9.798;2024-01-07T08:29:16;16.73;;;12.15;;
27313;SDS011;14800;48.174;9.798;2024-01-07T08:31:42;15.45;;;10.95;;
27313;SDS011;14800;48.174;9.798;2024-01-07T08:34:08;15.40;;;11.93;;
27313;SDS011;14800;48.174;9.798;2024-01-07T08:36:33;16.42;;;12.10;;
27313;SDS011;14800;48.174;9.798;2024-01-07T08:38:59;15.23;;;10.80;;
27313;SDS011;14800;48.174;9.798;2024-01-07T08:41:25;13.93;;;10.80;;
27313;SDS011;14800;48.174;9.798;2024-01-07T08:43:51;15.65;;;11.13;;
27313;SDS011;14800;48.174;9.798;2024-01-07T08:46:16;15.13;;;10.98;;
27313;SDS011;14800;48.174;9.798;2024-01-07T08:48:45;16.00;;;11.43;;
27313;SDS011;14800;48.174;9.798;2024-01-07T08:51:10;16.83;;;11.05;;
27313;SDS011;14800;48.174;9.798;2024-01-07T08:53:36;17.25;;;11.20;;
27313;SDS011;14800;48.174;9.798;2024-01-07T08:56:01;14.85;;;11.00;;
27313;SDS011;14800;48.174;9.798;2024-01-07T08:58:27;15.63;;;11.95;;
27313;SDS011;14800;48.174;9.798;2024-01-07T09:00:53;20.38;;;11.05;;
27313;SDS011;14800;48.174;9.798;2024-01-07T09:03:18;18.13;;;12.25;;
27313;SDS011;14800;48.174;9.798;2024-01-07T09:05:44;17.02;;;11.82;;
27313;SDS011;14800;48.174;9.798;2024-01-07T09:08:10;14.98;;;11.68;;
27313;SDS011;14800;48.174;9.798;2024-01-07T09:10:36;16.77;;;11.88;;
27313;SDS011;14800;48.174;9.798;2024-01-07T09:13:02;15.68;;;11.73;;
27313;SDS011;14800;48.174;9.798;2024-01-07T09:15:28;15.65;;;11.63;;
27313;SDS011;14800;48.174;9.798;2024-01-07T09:17:54;14.48;;;10.68;;
27313;SDS011;14800;48.174;9.798;2024-01-07T09:20:19;16.83;;;10.52;;
27313;SDS011;14800;48.174;9.798;2024-01-07T09:22:45;13.77;;;10.43;;
27313;SDS011;14800;48.174;9.798;2024-01-07T09:25:11;16.95;;;10.65;;
27313;SDS011;14800;48.174;9.798;2024-01-07T09:27:36;12.88;;;10.18;;
27313;SDS011;14800;48.174;9.798;2024-01-07T09:30:02;13.68;;;10.05;;
27313;SDS011;14800;48.174;9.798;2024-01-07T09:32:28;14.02;;;10.13;;
27313;SDS011;14800;48.174;9.798;2024-01-07T09:34:53;14.05;;;10.60;;
27313;SDS011;14800;48.174;9.798;2024-01-07T09:37:19;13.52;;;10.07;;
27313;SDS011;14800;48.174;9.798;2024-01-07T09:39:45;15.35;;;10.40;;
27313;SDS011;14800;48.174;9.798;2024-01-07T09:42:14;13.65;;;10.27;;
27313;SDS011;14800;48.174;9.798;2024-01-07T09:44:41;13.45;;;10.20;;
27313;SDS011;14800;48.174;9.798;2024-01-07T09:47:10;14.63;;;10.02;;
27313;SDS011;14800;48.174;9.798;2024-01-07T09:49:37;14.13;;;10.73;;
27313;SDS011;14800;48.174;9.798;2024-01-07T09:52:03;15.15;;;9.98;;
27313;SDS011;14800;48.174;9.798;2024-01-07T09:54:30;14.57;;;9.57;;
27313;SDS011;14800;48.174;9.798;2024-01-07T09:57:02;12.63;;;9.27;;
27313;SDS011;14800;48.174;9.798;2024-01-07T09:59:29;13.43;;;9.70;;
27313;SDS011;14800;48.174;9.798;2024-01-07T10:01:56;13.75;;;10.00;;
27313;SDS011;14800;48.174;9.798;2024-01-07T10:04:22;14.45;;;9.50;;
27313;SDS011;14800;48.174;9.798;2024-01-07T10:06:48;14.73;;;9.63;;
27313;SDS011;14800;48.174;9.798;2024-01-07T10:09:17;15.27;;;9.68;;
27313;SDS011;14800;48.174;9.798;2024-01-07T10:11:44;15.45;;;9.80;;
27313;SDS011;14800;48.174;9.798;2024-01-07T10:14:09;14.38;;;9.75;;
27313;SDS011;14800;48.174;9.798;2024-01-07T10:16:35;14.30;;;10.15;;
27313;SDS011;14800;48.174;9.798;2024-01-07T10:19:01;16.33;;;11.45;;
27313;SDS011;14800;48.174;9.798;2024-01-07T10:21:26;16.00;;;10.27;;
27313;SDS011;14800;48.174;9.798;2024-01-07T10:24:13;13.45;;;9.63;;
27313;SDS011;14800;48.174;9.798;2024-01-07T10:26:39;11.57;;;9.07;;
27313;SDS011;14800;48.174;9.798;2024-01-07T10:29:05;14.77;;;9.50;;
27313;SDS011;14800;48.174;9.798;2024-01-07T10:31:33;14.15;;;9.10;;
27313;SDS011;14800;48.174;9.798;2024-01-07T10:33:58;14.52;;;9.57;;
27313;SDS011;14800;48.174;9.798;2024-01-07T10:36:24;14.82;;;9.85;;
27313;SDS011;14800;48.174;9.798;2024-01-07T10:38:50;12.32;;;9.02;;
27313;SDS011;14800;48.174;9.798;2024-01-07T10:41:20;12.20;;;8.90;;
27313;SDS011;14800;48.174;9.798;2024-01-07T10:43:46;12.10;;;8.60;;
27313;SDS011;14800;48.174;9.798;2024-01-07T10:46:13;12.40;;;8.70;;
27313;SDS011;14800;48.174;9.798;2024-01-07T10:48:45;12.93;;;8.70;;
27313;SDS011;14800;48.174;9.798;2024-01-07T10:53:52;10.65;;;7.72;;
27313;SDS011;14800;48.174;9.798;2024-01-07T10:56:22;12.02;;;7.95;;
27313;SDS011;14800;48.174;9.798;2024-01-07T10:58:52;10.30;;;7.80;;
27313;SDS011;14800;48.174;9.798;2024-01-07T11:01:22;10.35;;;7.38;;
27313;SDS011;14800;48.174;9.798;2024-01-07T11:11:43;9.90;;;6.45;;
27313;SDS011;14800;48.174;9.798;2024-01-07T11:17:01;10.68;;;7.28;;
27313;SDS011;14800;48.174;9.798;2024-01-07T11:19:27;8.77;;;6.82;;
27313;SDS011;14800;48.174;9.798;2024-01-07T11:21:57;10.55;;;6.88;;
27313;SDS011;14800;48.174;9.798;2024-01-07T11:24:58;9.30;;;6.82;;
27313;SDS011;14800;48.174;9.798;2024-01-07T11:27:26;9.75;;;7.20;;
27313;SDS011;14800;48.174;9.798;2024-01-07T11:29:56;18.08;;;9.35;;
27313;SDS011;14800;48.174;9.798;2024-01-07T11:32:23;11.23;;;7.20;;
27313;SDS011;14800;48.174;9.798;2024-01-07T11:34:50;10.07;;;7.20;;
27313;SDS011;14800;48.174;9.798;2024-01-07T11:37:18;9.85;;;7.15;;
27313;SDS011;14800;48.174;9.798;2024-01-07T11:39:45;12.27;;;7.43;;
27313;SDS011;14800;48.174;9.798;2024-01-07T11:42:11;11.07;;;7.20;;
27313;SDS011;14800;48.174;9.798;2024-01-07T11:44:37;9.95;;;6.95;;
27313;SDS011;14800;48.174;9.798;2024-01-07T11:47:09;10.82;;;6.97;;
27313;SDS011;14800;48.174;9.798;2024-01-07T11:49:35;11.82;;;7.53;;
27313;SDS011;14800;48.174;9.798;2024-01-07T11:52:00;11.68;;;7.32;;
27313;SDS011;14800;48.174;9.798;2024-01-07T11:54:27;10.98;;;7.50;;
27313;SDS011;14800;48.174;9.798;2024-01-07T11:56:54;11.00;;;7.43;;
27313;SDS011;14800;48.174;9.798;2024-01-07T11:59:20;11.55;;;7.85;;
27313;SDS011;14800;48.174;9.798;2024-01-07T12:01:45;10.77;;;7.25;;
27313;SDS011;14800;48.174;9.798;2024-01-07T12:04:11;11.50;;;8.02;;
27313;SDS011;14800;48.174;9.798;2024-01-07T12:06:37;11.65;;;7.85;;
27313;SDS011;14800;48.174;9.798;2024-01-07T12:09:04;12.00;;;8.07;;
27313;SDS011;14800;48.174;9.798;2024-01-07T12:11:30;10.77;;;7.72;;
27313;SDS011;14800;48.174;9.798;2024-01-07T12:13:56;12.75;;;8.00;;
27313;SDS011;14800;48.174;9.798;2024-01-07T12:16:22;11.80;;;8.05;;
27313;SDS011;14800;48.174;9.798;2024-01-07T12:18:48;12.10;;;8.20;;
27313;SDS011;14800;48.174;9.798;2024-01-07T12:21:18;11.65;;;7.50;;
27313;SDS011;14800;48.174;9.798;2024-01-07T12:23:47;11.57;;;7.80;;
27313;SDS011;14800;48.174;9.798;2024-01-07T12:26:15;11.35;;;7.75;;
27313;SDS011;14800;48.174;9.798;2024-01-07T12:28:41;13.30;;;8.18;;
27313;SDS011;14800;48.174;9.798;2024-01-07T12:31:07;11.30;;;7.50;;
27313;SDS011;14800;48.174;9.798;2024-01-07T12:33:34;10.65;;;7.47;;
27313;SDS011;14800;48.174;9.798;2024-01-07T12:36:02;12.40;;;7.25;;
27313;SDS011;14800;48.174;9.798;2024-01-07T12:38:28;12.35;;;7.70;;
27313;SDS011;14800;48.174;9.798;2024-01-07T12:40:54;10.45;;;7.22;;
27313;SDS011;14800;48.174;9.798;2024-01-07T12:43:20;10.63;;;7.53;;
27313;SDS011;14800;48.174;9.798;2024-01-07T12:45:46;12.90;;;7.93;;
27313;SDS011;14800;48.174;9.798;2024-01-07T12:48:12;11.32;;;7.35;;
27313;SDS011;14800;48.174;9.798;2024-01-07T12:50:38;9.73;;;6.80;;
27313;SDS011;14800;48.174;9.798;2024-01-07T12:53:04;10.98;;;7.60;;
27313;SDS011;14800;48.174;9.798;2024-01-07T12:55:30;11.43;;;7.82;;
27313;SDS011;14800;48.174;9.798;2024-01-07T12:57:56;12.93;;;8.13;;
27313;SDS011;14800;48.174;9.798;2024-01-07T13:00:23;11.85;;;8.18;;
27313;SDS011;14800;48.174;9.798;2024-01-07T13:02:50;13.55;;;8.63;;
27313;SDS011;14800;48.174;9.798;2024-01-07T13:05:15;11.93;;;7.90;;
27313;SDS011;14800;48.174;9.798;2024-01-07T13:07:42;11.32;;;7.88;;
27313;SDS011;14800;48.174;9.798;2024-01-07T13:10:07;11.90;;;8.10;;
27313;SDS011;14800;48.174;9.798;2024-01-07T13:12:34;12.60;;;8.00;;
27313;SDS011;14800;48.174;9.798;2024-01-07T13:15:00;12.00;;;8.02;;
27313;SDS011;14800;48.174;9.798;2024-01-07T13:17:26;11.98;;;8.35;;
27313;SDS011;14800;48.174;9.798;2024-01-07T13:19:51;13.10;;;8.20;;
27313;SDS011;14800;48.174;9.798;2024-01-07T13:22:18;11.32;;;8.23;;
27313;SDS011;14800;48.174;9.798;2024-01-07T13:24:43;13.32;;;8.60;;
27313;SDS011;14800;48.174;9.798;2024-01-07T13:27:09;10.85;;;7.65;;
27313;SDS011;14800;48.174;9.798;2024-01-07T13:29:34;11.90;;;8.15;;
27313;SDS011;14800;48.174;9.798;2024-01-07T13:32:00;13.27;;;8.93;;
27313;SDS011;14800;48.174;9.798;2024-01-07T13:34:25;13.75;;;9.23;;
27313;SDS011;14800;48.174;9.798;2024-01-07T13:36:52;13.95;;;9.20;;
27313;SDS011;14800;48.174;9.798;2024-01-07T13:39:17;14.40;;;9.50;;
27313;SDS011;14800;48.174;9.798;2024-01-07T13:41:43;15.38;;;9.50;;
27313;SDS011;14800;48.174;9.798;2024-01-07T13:44:09;15.57;;;9.50;;
27313;SDS011;14800;48.174;9.798;2024-01-07T13:46:42;15.43;;;9.63;;
27313;SDS011;14800;48.174;9.798;2024-01-07T13:49:09;14.43;;;9.25;;
27313;SDS011;14800;48.174;9.798;2024-01-07T13:51:35;15.82;;;9.38;;
27313;SDS011;14800;48.174;9.798;2024-01-07T13:54:02;14.52;;;9.32;;
27313;SDS011;14800;48.174;9.798;2024-01-07T13:56:28;16.55;;;10.20;;
27313;SDS011;14800;48.174;9.798;2024-01-07T13:58:54;15.43;;;9.68;;
27313;SDS011;14800;48.174;9.798;2024-01-07T14:01:21;13.02;;;8.98;;
27313;SDS011;14800;48.174;9.798;2024-01-07T14:03:46;12.90;;;9.35;;
27313;SDS011;14800;48.174;9.798;2024-01-07T14:06:12;14.80;;;9.52;;
27313;SDS011;14800;48.174;9.798;2024-01-07T14:08:38;15.48;;;9.23;;
27313;SDS011;14800;48.174;9.798;2024-01-07T14:11:04;13.55;;;9.25;;
27313;SDS011;14800;48.174;9.798;2024-01-07T14:13:32;15.38;;;9.77;;
27313;SDS011;14800;48.174;9.798;2024-01-07T14:15:57;14.98;;;9.35;;
27313;SDS011;14800;48.174;9.798;2024-01-07T14:18:23;13.23;;;9.32;;
27313;SDS011;14800;48.174;9.798;2024-01-07T14:20:49;14.60;;;9.55;;
27313;SDS011;14800;48.174;9.798;2024-01-07T14:23:14;13.27;;;9.20;;
27313;SDS011;14800;48.174;9.798;2024-01-07T14:25:40;13.52;;;9.20;;
27313;SDS011;14800;48.174;9.798;2024-01-07T14:28:06;13.45;;;9.05;;
27313;SDS011;14800;48.174;9.798;2024-01-07T14:30:32;15.05;;;9.75;;
27313;SDS011;14800;48.174;9.798;2024-01-07T14:32:58;14.32;;;9.32;;
27313;SDS011;14800;48.174;9.798;2024-01-07T14:35:23;16.42;;;10.07;;
27313;SDS011;14800;48.174;9.798;2024-01-07T14:37:51;13.85;;;8.93;;
27313;SDS011;14800;48.174;9.798;2024-01-07T14:40:17;12.13;;;8.35;;
27313;SDS011;14800;48.174;9.798;2024-01-07T14:42:43;14.20;;;9.07;;